San Jose, CA (95108)

7:07 AM PST on February 12, 2016 (GMT -0800)
Los Altos Highlands | | Change Station
CLOSE
Current Station
Personal Weather Station
Location: Los Altos, CA
Elevation: 315 ft
Nearby Weather Stations

Elev 315 ft 37.34 °N, 122.08 °W | Updated 8 seconds ago

Partly Cloudy
Partly Cloudy
51.4 °F
Feels Like 51.4 °F
N
0.0
Wind Variable Wind from WSW
Gusts 0.0 mph

Today
High -- | Low -- °F
--% Chance of Precip.
Yesterday
High -- | Low -- °F
Precip. -- in
Pressure 30.23 in
Visibility 10.0 miles
Clouds Few 400 ft
Dew Point 46 °F
Humidity 80%
Rainfall 0.00 in
Snow Depth Not available.
7:01 AM 5:44 PM
Waxing Crescent, 21% visible
METAR KNUQ 121456Z 27003KT 10SM FEW004 10/08 A3023 RMK AO2 SLP237 T01000078 53009
Pressure 30.23 in
Visibility 10.0 miles
Clouds Few 400 ft
Dew Point 46 °F
Humidity 80%
Rainfall 0.00 in
Snow Depth Not available.
7:01 AM 5:44 PM
Waxing Crescent, 21% visible
METAR KNUQ 121456Z 27003KT 10SM FEW004 10/08 A3023 RMK AO2 SLP237 T01000078 53009

10-Day Weather Forecast

Almanac

Astronomy

Feb. 12, 2016 Rise Set
Actual Time
Civil Twilight
Nautical Twilight
Astronomical Twilight
Moon
Length of Visible Light
Length of Day
Tomorrow will be .
, % of the Moon is Illuminated

Today's Extremes

State Highs State Lows

Community

WunderPhotos

Upload Photos

1,892,323 photos uploaded!

WunderBlog® & News

Nearby

Air Quality

  Air Quality AQ Index Pollutant
Not available.

Snow Depth

Station Depth Elevation

Earthquake Activity

City Distance Mag. Time & Date
Minimum magnitude displayed is 2.5.

Coastal Water Temperatures

Place Temperature

Stations

Nearby Weather Stations

Station Location Temp. Windchill Dew Point Humidity Wind Precip. Elev Updated Type
                   

Watches & Warnings

There are currently no watches in effect.